sensor_id;sensor_type;location;lat;lon;timestamp;temperature;humidity
71237;DHT22;58984;51.960;5.582;2023-07-29T00:00:52;24.70;60.00
71237;DHT22;58984;51.960;5.582;2023-07-29T00:03:18;24.70;60.00
71237;DHT22;58984;51.960;5.582;2023-07-29T00:05:44;24.80;60.00
71237;DHT22;58984;51.960;5.582;2023-07-29T00:08:09;24.70;60.00
71237;DHT22;58984;51.960;5.582;2023-07-29T00:10:38;24.70;60.00
71237;DHT22;58984;51.960;5.582;2023-07-29T00:13:05;24.70;60.00
71237;DHT22;58984;51.960;5.582;2023-07-29T00:15:30;24.70;60.00
71237;DHT22;58984;51.960;5.582;2023-07-29T00:17:56;24.70;60.00
71237;DHT22;58984;51.960;5.582;2023-07-29T00:20:22;24.70;60.00
71237;DHT22;58984;51.960;5.582;2023-07-29T00:22:47;24.60;60.00
71237;DHT22;58984;51.960;5.582;2023-07-29T00:25:15;24.60;60.00
71237;DHT22;58984;51.960;5.582;2023-07-29T00:27:42;24.60;60.00
71237;DHT22;58984;51.960;5.582;2023-07-29T00:30:08;24.60;60.10
71237;DHT22;58984;51.960;5.582;2023-07-29T00:32:35;24.60;60.10
71237;DHT22;58984;51.960;5.582;2023-07-29T00:35:01;24.60;60.10
71237;DHT22;58984;51.960;5.582;2023-07-29T00:37:28;24.60;60.10
71237;DHT22;58984;51.960;5.582;2023-07-29T00:39:53;24.60;60.10
71237;DHT22;58984;51.960;5.582;2023-07-29T00:42:19;24.60;60.10
71237;DHT22;58984;51.960;5.582;2023-07-29T00:44:44;24.60;60.10
71237;DHT22;58984;51.960;5.582;2023-07-29T00:47:11;24.60;60.10
71237;DHT22;58984;51.960;5.582;2023-07-29T00:49:38;24.60;60.10
71237;DHT22;58984;51.960;5.582;2023-07-29T00:52:04;24.60;60.00
71237;DHT22;58984;51.960;5.582;2023-07-29T00:54:29;24.50;60.00
71237;DHT22;58984;51.960;5.582;2023-07-29T00:56:55;24.50;60.00
71237;DHT22;58984;51.960;5.582;2023-07-29T00:59:20;24.50;60.00
71237;DHT22;58984;51.960;5.582;2023-07-29T01:01:46;24.50;60.10
71237;DHT22;58984;51.960;5.582;2023-07-29T01:04:12;24.50;60.00
71237;DHT22;58984;51.960;5.582;2023-07-29T01:14:58;24.50;60.10
71237;DHT22;58984;51.960;5.582;2023-07-29T01:18:30;24.40;60.30
71237;DHT22;58984;51.960;5.582;2023-07-29T01:20:24;24.40;60.00
71237;DHT22;58984;51.960;5.582;2023-07-29T01:22:51;24.40;60.00
71237;DHT22;58984;51.960;5.582;2023-07-29T01:25:17;24.40;60.10
71237;DHT22;58984;51.960;5.582;2023-07-29T01:27:44;24.40;60.20
71237;DHT22;58984;51.960;5.582;2023-07-29T01:30:10;24.40;60.20
71237;DHT22;58984;51.960;5.582;2023-07-29T01:35:23;24.30;60.30
71237;DHT22;58984;51.960;5.582;2023-07-29T01:37:52;24.40;60.40
71237;DHT22;58984;51.960;5.582;2023-07-29T01:40:22;24.40;60.40
71237;DHT22;58984;51.960;5.582;2023-07-29T01:42:49;24.40;60.50
71237;DHT22;58984;51.960;5.582;2023-07-29T01:45:14;24.40;60.40
71237;DHT22;58984;51.960;5.582;2023-07-29T01:47:40;24.40;60.40
71237;DHT22;58984;51.960;5.582;2023-07-29T01:50:07;24.40;60.50
71237;DHT22;58984;51.960;5.582;2023-07-29T01:52:33;24.40;60.50
71237;DHT22;58984;51.960;5.582;2023-07-29T01:54:58;24.40;60.50
71237;DHT22;58984;51.960;5.582;2023-07-29T01:57:24;24.30;60.50
71237;DHT22;58984;51.960;5.582;2023-07-29T01:59:49;24.30;60.50
71237;DHT22;58984;51.960;5.582;2023-07-29T02:02:15;24.30;60.60
71237;DHT22;58984;51.960;5.582;2023-07-29T02:04:41;24.30;60.60
71237;DHT22;58984;51.960;5.582;2023-07-29T02:07:06;24.30;60.70
71237;DHT22;58984;51.960;5.582;2023-07-29T02:09:32;24.40;60.80
71237;DHT22;58984;51.960;5.582;2023-07-29T02:11:57;24.30;60.80
71237;DHT22;58984;51.960;5.582;2023-07-29T02:14:23;24.30;60.80
71237;DHT22;58984;51.960;5.582;2023-07-29T02:16:49;24.30;60.80
71237;DHT22;58984;51.960;5.582;2023-07-29T02:19:15;24.30;60.90
71237;DHT22;58984;51.960;5.582;2023-07-29T02:21:41;24.30;60.90
71237;DHT22;58984;51.960;5.582;2023-07-29T02:24:06;24.30;60.90
71237;DHT22;58984;51.960;5.582;2023-07-29T02:26:32;24.30;61.00
71237;DHT22;58984;51.960;5.582;2023-07-29T02:28:58;24.30;60.90
71237;DHT22;58984;51.960;5.582;2023-07-29T02:31:24;24.30;60.90
71237;DHT22;58984;51.960;5.582;2023-07-29T02:33:51;24.30;61.00
71237;DHT22;58984;51.960;5.582;2023-07-29T02:36:17;24.30;60.90
71237;DHT22;58984;51.960;5.582;2023-07-29T02:38:43;24.30;61.00
71237;DHT22;58984;51.960;5.582;2023-07-29T02:41:10;24.30;61.00
71237;DHT22;58984;51.960;5.582;2023-07-29T02:43:37;24.30;61.00
71237;DHT22;58984;51.960;5.582;2023-07-29T02:46:03;24.30;61.00
71237;DHT22;58984;51.960;5.582;2023-07-29T02:48:29;24.30;60.90
71237;DHT22;58984;51.960;5.582;2023-07-29T02:50:55;24.30;61.00
71237;DHT22;58984;51.960;5.582;2023-07-29T02:53:22;24.20;60.80
71237;DHT22;58984;51.960;5.582;2023-07-29T02:55:48;24.20;60.80
71237;DHT22;58984;51.960;5.582;2023-07-29T02:58:14;24.20;60.80
71237;DHT22;58984;51.960;5.582;2023-07-29T03:00:39;24.20;60.70
71237;DHT22;58984;51.960;5.582;2023-07-29T03:03:09;24.20;61.50
71237;DHT22;58984;51.960;5.582;2023-07-29T03:05:35;24.20;60.60
71237;DHT22;58984;51.960;5.582;2023-07-29T03:08:00;24.20;60.60
71237;DHT22;58984;51.960;5.582;2023-07-29T03:10:26;24.20;60.60
71237;DHT22;58984;51.960;5.582;2023-07-29T03:12:54;24.20;60.60
71237;DHT22;58984;51.960;5.582;2023-07-29T03:15:23;24.20;60.60
71237;DHT22;58984;51.960;5.582;2023-07-29T03:17:50;24.20;60.60
71237;DHT22;58984;51.960;5.582;2023-07-29T03:20:16;24.20;60.50
71237;DHT22;58984;51.960;5.582;2023-07-29T03:22:43;24.20;60.50
71237;DHT22;58984;51.960;5.582;2023-07-29T03:25:09;24.20;60.40
71237;DHT22;58984;51.960;5.582;2023-07-29T03:27:34;24.20;60.40
71237;DHT22;58984;51.960;5.582;2023-07-29T03:30:02;24.10;61.00
71237;DHT22;58984;51.960;5.582;2023-07-29T03:32:28;24.10;60.20
71237;DHT22;58984;51.960;5.582;2023-07-29T03:34:54;24.10;60.20
71237;DHT22;58984;51.960;5.582;2023-07-29T03:37:20;24.10;60.20
71237;DHT22;58984;51.960;5.582;2023-07-29T03:39:47;24.20;60.30
71237;DHT22;58984;51.960;5.582;2023-07-29T03:42:12;24.10;60.10
71237;DHT22;58984;51.960;5.582;2023-07-29T03:44:38;24.10;60.10
71237;DHT22;58984;51.960;5.582;2023-07-29T03:47:05;24.10;60.10
71237;DHT22;58984;51.960;5.582;2023-07-29T03:49:31;24.10;60.10
71237;DHT22;58984;51.960;5.582;2023-07-29T03:51:57;24.10;60.10
71237;DHT22;58984;51.960;5.582;2023-07-29T03:54:23;24.10;60.10
71237;DHT22;58984;51.960;5.582;2023-07-29T03:56:48;24.10;60.00
71237;DHT22;58984;51.960;5.582;2023-07-29T03:59:14;24.10;60.00
71237;DHT22;58984;51.960;5.582;2023-07-29T04:01:40;24.10;60.00
71237;DHT22;58984;51.960;5.582;2023-07-29T04:04:05;24.00;59.90
71237;DHT22;58984;51.960;5.582;2023-07-29T04:06:31;24.00;59.80
71237;DHT22;58984;51.960;5.582;2023-07-29T04:08:57;24.00;59.80
71237;DHT22;58984;51.960;5.582;2023-07-29T04:11:23;24.00;59.80
71237;DHT22;58984;51.960;5.582;2023-07-29T04:13:49;24.00;59.80
71237;DHT22;58984;51.960;5.582;2023-07-29T04:16:15;24.00;59.80
71237;DHT22;58984;51.960;5.582;2023-07-29T04:18:42;24.00;59.70
71237;DHT22;58984;51.960;5.582;2023-07-29T04:21:07;24.00;59.70
71237;DHT22;58984;51.960;5.582;2023-07-29T04:23:33;24.00;59.60
71237;DHT22;58984;51.960;5.582;2023-07-29T04:25:58;24.00;59.60
71237;DHT22;58984;51.960;5.582;2023-07-29T04:28:24;24.00;59.60
71237;DHT22;58984;51.960;5.582;2023-07-29T04:30:49;24.00;59.60
71237;DHT22;58984;51.960;5.582;2023-07-29T04:33:15;23.90;59.60
71237;DHT22;58984;51.960;5.582;2023-07-29T04:35:41;24.00;59.60
71237;DHT22;58984;51.960;5.582;2023-07-29T04:38:06;23.90;59.50
71237;DHT22;58984;51.960;5.582;2023-07-29T04:40:35;23.90;59.50
71237;DHT22;58984;51.960;5.582;2023-07-29T04:43:01;23.90;59.50
71237;DHT22;58984;51.960;5.582;2023-07-29T04:45:30;23.90;59.50
71237;DHT22;58984;51.960;5.582;2023-07-29T04:47:57;23.90;59.50
71237;DHT22;58984;51.960;5.582;2023-07-29T04:50:23;23.90;59.50
71237;DHT22;58984;51.960;5.582;2023-07-29T04:52:49;23.90;59.60
71237;DHT22;58984;51.960;5.582;2023-07-29T04:55:14;23.90;59.50
71237;DHT22;58984;51.960;5.582;2023-07-29T04:57:40;23.90;59.60
71237;DHT22;58984;51.960;5.582;2023-07-29T05:00:06;23.90;59.50
71237;DHT22;58984;51.960;5.582;2023-07-29T05:02:32;23.90;59.50
71237;DHT22;58984;51.960;5.582;2023-07-29T05:04:57;23.80;59.40
71237;DHT22;58984;51.960;5.582;2023-07-29T05:07:23;23.80;59.40
71237;DHT22;58984;51.960;5.582;2023-07-29T05:09:48;23.90;59.50
71237;DHT22;58984;51.960;5.582;2023-07-29T05:12:14;23.80;59.40
71237;DHT22;58984;51.960;5.582;2023-07-29T05:14:40;23.80;59.00
71237;DHT22;58984;51.960;5.582;2023-07-29T05:17:06;23.80;59.40
71237;DHT22;58984;51.960;5.582;2023-07-29T05:19:31;23.80;59.40
71237;DHT22;58984;51.960;5.582;2023-07-29T05:21:57;23.80;59.40
71237;DHT22;58984;51.960;5.582;2023-07-29T05:24:23;23.80;59.40
71237;DHT22;58984;51.960;5.582;2023-07-29T05:26:49;23.80;59.40
71237;DHT22;58984;51.960;5.582;2023-07-29T05:29:14;23.80;59.40
71237;DHT22;58984;51.960;5.582;2023-07-29T05:31:40;23.80;59.40
71237;DHT22;58984;51.960;5.582;2023-07-29T05:34:06;23.80;59.40
71237;DHT22;58984;51.960;5.582;2023-07-29T05:36:31;23.80;59.40
71237;DHT22;58984;51.960;5.582;2023-07-29T05:38:58;23.80;59.40
71237;DHT22;58984;51.960;5.582;2023-07-29T05:41:24;23.70;59.40
71237;DHT22;58984;51.960;5.582;2023-07-29T05:43:51;23.80;59.40
71237;DHT22;58984;51.960;5.582;2023-07-29T05:46:16;23.70;59.30
71237;DHT22;58984;51.960;5.582;2023-07-29T05:48:42;23.80;59.40
71237;DHT22;58984;51.960;5.582;2023-07-29T05:51:08;23.80;59.40
71237;DHT22;58984;51.960;5.582;2023-07-29T05:53:33;23.80;59.40
71237;DHT22;58984;51.960;5.582;2023-07-29T05:55:59;23.70;59.40
71237;DHT22;58984;51.960;5.582;2023-07-29T05:58:24;23.80;59.40
71237;DHT22;58984;51.960;5.582;2023-07-29T06:00:50;23.80;59.40
71237;DHT22;58984;51.960;5.582;2023-07-29T06:03:18;23.70;59.40
71237;DHT22;58984;51.960;5.582;2023-07-29T06:05:44;23.70;59.40
71237;DHT22;58984;51.960;5.582;2023-07-29T06:08:09;23.70;59.40
71237;DHT22;58984;51.960;5.582;2023-07-29T06:10:35;23.80;59.50
71237;DHT22;58984;51.960;5.582;2023-07-29T06:13:01;23.70;59.40
71237;DHT22;58984;51.960;5.582;2023-07-29T06:15:26;23.80;59.50
71237;DHT22;58984;51.960;5.582;2023-07-29T06:17:52;23.70;59.40
71237;DHT22;58984;51.960;5.582;2023-07-29T06:20:17;23.70;59.40
71237;DHT22;58984;51.960;5.582;2023-07-29T06:22:43;23.80;59.60
71237;DHT22;58984;51.960;5.582;2023-07-29T06:25:09;23.70;59.50
71237;DHT22;58984;51.960;5.582;2023-07-29T06:27:34;23.80;59.60
71237;DHT22;58984;51.960;5.582;2023-07-29T06:30:00;23.70;59.50
71237;DHT22;58984;51.960;5.582;2023-07-29T06:32:26;23.80;59.60
71237;DHT22;58984;51.960;5.582;2023-07-29T06:34:51;23.70;59.50
71237;DHT22;58984;51.960;5.582;2023-07-29T06:37:19;23.80;59.60
71237;DHT22;58984;51.960;5.582;2023-07-29T06:39:45;23.70;59.50
71237;DHT22;58984;51.960;5.582;2023-07-29T06:42:11;23.80;59.60
71237;DHT22;58984;51.960;5.582;2023-07-29T06:44:36;23.70;59.60
71237;DHT22;58984;51.960;5.582;2023-07-29T06:47:02;23.80;59.70
71237;DHT22;58984;51.960;5.582;2023-07-29T06:49:28;23.70;59.60
71237;DHT22;58984;51.960;5.582;2023-07-29T06:51:53;23.80;59.70
71237;DHT22;58984;51.960;5.582;2023-07-29T06:54:19;23.80;59.70
71237;DHT22;58984;51.960;5.582;2023-07-29T06:56:49;23.80;59.70
71237;DHT22;58984;51.960;5.582;2023-07-29T06:59:14;23.80;59.80
71237;DHT22;58984;51.960;5.582;2023-07-29T07:01:40;23.80;59.80
71237;DHT22;58984;51.960;5.582;2023-07-29T07:04:05;23.80;59.80
71237;DHT22;58984;51.960;5.582;2023-07-29T07:06:31;23.80;59.90
71237;DHT22;58984;51.960;5.582;2023-07-29T07:08:56;23.80;59.80
71237;DHT22;58984;51.960;5.582;2023-07-29T07:11:22;23.80;59.80
71237;DHT22;58984;51.960;5.582;2023-07-29T07:13:47;23.80;59.80
71237;DHT22;58984;51.960;5.582;2023-07-29T07:16:13;23.80;59.90
71237;DHT22;58984;51.960;5.582;2023-07-29T07:18:38;23.80;59.90
71237;DHT22;58984;51.960;5.582;2023-07-29T07:21:04;23.80;59.90
71237;DHT22;58984;51.960;5.582;2023-07-29T07:23:29;23.80;59.90
71237;DHT22;58984;51.960;5.582;2023-07-29T07:25:55;23.80;59.90
71237;DHT22;58984;51.960;5.582;2023-07-29T07:28:21;23.80;59.90
71237;DHT22;58984;51.960;5.582;2023-07-29T07:30:46;23.90;60.00
71237;DHT22;58984;51.960;5.582;2023-07-29T07:33:12;23.80;59.90
71237;DHT22;58984;51.960;5.582;2023-07-29T07:35:37;23.90;60.00
71237;DHT22;58984;51.960;5.582;2023-07-29T07:38:03;23.90;60.00
71237;DHT22;58984;51.960;5.582;2023-07-29T07:40:30;23.90;60.00
71237;DHT22;58984;51.960;5.582;2023-07-29T07:42:56;23.90;60.00
71237;DHT22;58984;51.960;5.582;2023-07-29T07:45:22;23.90;60.10
71237;DHT22;58984;51.960;5.582;2023-07-29T07:47:47;23.90;60.10
71237;DHT22;58984;51.960;5.582;2023-07-29T07:50:13;24.00;60.20
71237;DHT22;58984;51.960;5.582;2023-07-29T07:52:39;24.00;60.20
71237;DHT22;58984;51.960;5.582;2023-07-29T07:55:05;23.90;60.10
71237;DHT22;58984;51.960;5.582;2023-07-29T07:57:31;24.00;60.20
71237;DHT22;58984;51.960;5.582;2023-07-29T07:59:56;24.00;60.20
71237;DHT22;58984;51.960;5.582;2023-07-29T08:02:22;24.00;60.20
71237;DHT22;58984;51.960;5.582;2023-07-29T08:04:48;24.00;60.20
71237;DHT22;58984;51.960;5.582;2023-07-29T08:07:13;24.00;60.20
71237;DHT22;58984;51.960;5.582;2023-07-29T08:09:39;24.00;60.20
71237;DHT22;58984;51.960;5.582;2023-07-29T08:12:05;24.10;60.40
71237;DHT22;58984;51.960;5.582;2023-07-29T08:14:31;24.10;60.40
71237;DHT22;58984;51.960;5.582;2023-07-29T08:16:57;24.00;60.30
71237;DHT22;58984;51.960;5.582;2023-07-29T08:19:23;24.10;60.50
71237;DHT22;58984;51.960;5.582;2023-07-29T08:21:48;24.10;60.50
71237;DHT22;58984;51.960;5.582;2023-07-29T08:24:14;24.10;60.50
71237;DHT22;58984;51.960;5.582;2023-07-29T08:26:40;24.10;60.40
71237;DHT22;58984;51.960;5.582;2023-07-29T08:29:05;24.10;60.30
71237;DHT22;58984;51.960;5.582;2023-07-29T08:31:31;24.20;60.20
71237;DHT22;58984;51.960;5.582;2023-07-29T08:33:59;24.20;60.20
71237;DHT22;58984;51.960;5.582;2023-07-29T08:36:25;24.20;60.30
71237;DHT22;58984;51.960;5.582;2023-07-29T08:38:50;24.20;60.20
71237;DHT22;58984;51.960;5.582;2023-07-29T08:41:16;24.20;60.20
71237;DHT22;58984;51.960;5.582;2023-07-29T08:44:01;24.20;60.20
71237;DHT22;58984;51.960;5.582;2023-07-29T08:46:28;24.20;60.20
71237;DHT22;58984;51.960;5.582;2023-07-29T08:48:55;24.20;60.10
71237;DHT22;58984;51.960;5.582;2023-07-29T08:51:21;24.30;60.10
71237;DHT22;58984;51.960;5.582;2023-07-29T08:53:49;24.30;60.10
71237;DHT22;58984;51.960;5.582;2023-07-29T08:56:15;24.30;60.10
71237;DHT22;58984;51.960;5.582;2023-07-29T08:58:41;24.30;60.10
71237;DHT22;58984;51.960;5.582;2023-07-29T09:01:07;24.30;60.10
71237;DHT22;58984;51.960;5.582;2023-07-29T09:03:32;24.40;60.20
71237;DHT22;58984;51.960;5.582;2023-07-29T09:05:58;24.30;60.00
71237;DHT22;58984;51.960;5.582;2023-07-29T09:08:26;24.40;60.00
71237;DHT22;58984;51.960;5.582;2023-07-29T09:10:53;24.30;60.00
71237;DHT22;58984;51.960;5.582;2023-07-29T09:13:19;24.40;60.80
71237;DHT22;58984;51.960;5.582;2023-07-29T09:15:45;24.40;60.00
71237;DHT22;58984;51.960;5.582;2023-07-29T09:18:15;24.40;60.00
71237;DHT22;58984;51.960;5.582;2023-07-29T09:20:41;24.40;60.10
71237;DHT22;58984;51.960;5.582;2023-07-29T09:23:09;24.40;60.10
71237;DHT22;58984;51.960;5.582;2023-07-29T09:25:36;24.40;60.20
71237;DHT22;58984;51.960;5.582;2023-07-29T09:28:11;24.50;60.20
71237;DHT22;58984;51.960;5.582;2023-07-29T09:30:41;24.50;60.20
71237;DHT22;58984;51.960;5.582;2023-07-29T09:33:08;24.50;60.20
71237;DHT22;58984;51.960;5.582;2023-07-29T09:35:36;24.60;60.20
71237;DHT22;58984;51.960;5.582;2023-07-29T09:38:03;24.60;61.00
71237;DHT22;58984;51.960;5.582;2023-07-29T09:40:34;24.70;60.20
71237;DHT22;58984;51.960;5.582;2023-07-29T09:43:01;24.70;60.40
71237;DHT22;58984;51.960;5.582;2023-07-29T09:45:27;24.80;60.40
71237;DHT22;58984;51.960;5.582;2023-07-29T09:47:54;24.80;60.50
71237;DHT22;58984;51.960;5.582;2023-07-29T09:50:24;24.90;60.50
71237;DHT22;58984;51.960;5.582;2023-07-29T09:52:51;24.90;60.50
71237;DHT22;58984;51.960;5.582;2023-07-29T09:55:22;24.90;60.20
71237;DHT22;58984;51.960;5.582;2023-07-29T09:57:52;24.90;60.50
71237;DHT22;58984;51.960;5.582;2023-07-29T10:00:18;25.20;60.40
71237;DHT22;58984;51.960;5.582;2023-07-29T10:02:44;25.20;59.90
71237;DHT22;58984;51.960;5.582;2023-07-29T10:05:10;25.20;60.20
71237;DHT22;58984;51.960;5.582;2023-07-29T10:07:37;25.20;61.00
71237;DHT22;58984;51.960;5.582;2023-07-29T10:10:04;25.20;60.40
71237;DHT22;58984;51.960;5.582;2023-07-29T10:12:34;25.20;60.30
71237;DHT22;58984;51.960;5.582;2023-07-29T10:15:03;25.20;60.40
71237;DHT22;58984;51.960;5.582;2023-07-29T10:17:30;25.30;60.40
71237;DHT22;58984;51.960;5.582;2023-07-29T10:19:56;25.30;60.20
71237;DHT22;58984;51.960;5.582;2023-07-29T10:22:27;25.40;60.40
71237;DHT22;58984;51.960;5.582;2023-07-29T10:24:54;25.40;60.10
71237;DHT22;58984;51.960;5.582;2023-07-29T10:27:23;25.50;60.20
71237;DHT22;58984;51.960;5.582;2023-07-29T10:29:50;25.50;60.10
71237;DHT22;58984;51.960;5.582;2023-07-29T10:32:19;25.50;60.00
71237;DHT22;58984;51.960;5.582;2023-07-29T10:34:46;25.50;60.70
71237;DHT22;58984;51.960;5.582;2023-07-29T10:37:12;25.60;60.00
71237;DHT22;58984;51.960;5.582;2023-07-29T10:39:39;25.60;60.00
71237;DHT22;58984;51.960;5.582;2023-07-29T10:42:06;25.60;59.70
71237;DHT22;58984;51.960;5.582;2023-07-29T10:47:20;25.60;59.90
71237;DHT22;58984;51.960;5.582;2023-07-29T10:49:52;25.60;59.70
71237;DHT22;58984;51.960;5.582;2023-07-29T10:55:02;25.60;59.60
71237;DHT22;58984;51.960;5.582;2023-07-29T10:57:39;25.70;59.60
71237;DHT22;58984;51.960;5.582;2023-07-29T11:00:07;25.60;59.60
71237;DHT22;58984;51.960;5.582;2023-07-29T11:02:37;25.70;59.60
71237;DHT22;58984;51.960;5.582;2023-07-29T11:05:07;25.60;59.70
71237;DHT22;58984;51.960;5.582;2023-07-29T11:07:49;25.60;59.40
71237;DHT22;58984;51.960;5.582;2023-07-29T11:10:14;25.60;59.60
71237;DHT22;58984;51.960;5.582;2023-07-29T11:17:39;25.60;59.50
71237;DHT22;58984;51.960;5.582;2023-07-29T11:20:05;25.60;59.60
71237;DHT22;58984;51.960;5.582;2023-07-29T11:22:33;25.70;59.60
71237;DHT22;58984;51.960;5.582;2023-07-29T11:24:58;25.70;59.60
71237;DHT22;58984;51.960;5.582;2023-07-29T11:27:24;25.60;59.60
71237;DHT22;58984;51.960;5.582;2023-07-29T11:29:49;25.60;59.60
71237;DHT22;58984;51.960;5.582;2023-07-29T11:32:16;25.60;59.60
71237;DHT22;58984;51.960;5.582;2023-07-29T11:34:42;25.60;60.40
71237;DHT22;58984;51.960;5.582;2023-07-29T11:37:11;25.60;60.10
71237;DHT22;58984;51.960;5.582;2023-07-29T11:39:40;25.50;60.00
71237;DHT22;58984;51.960;5.582;2023-07-29T11:42:06;25.50;60.40
71237;DHT22;58984;51.960;5.582;2023-07-29T11:44:32;25.50;61.20
71237;DHT22;58984;51.960;5.582;2023-07-29T11:46:58;25.50;61.10
71237;DHT22;58984;51.960;5.582;2023-07-29T11:49:23;25.50;60.80
71237;DHT22;58984;51.960;5.582;2023-07-29T11:51:49;25.50;60.90
71237;DHT22;58984;51.960;5.582;2023-07-29T11:54:15;25.40;60.80
71237;DHT22;58984;51.960;5.582;2023-07-29T11:56:41;25.40;60.80
71237;DHT22;58984;51.960;5.582;2023-07-29T11:59:07;25.40;60.80
71237;DHT22;58984;51.960;5.582;2023-07-29T12:01:33;25.40;60.90
71237;DHT22;58984;51.960;5.582;2023-07-29T12:03:59;25.40;60.90
71237;DHT22;58984;51.960;5.582;2023-07-29T12:06:25;25.40;61.00
71237;DHT22;58984;51.960;5.582;2023-07-29T12:08:51;25.40;61.10
71237;DHT22;58984;51.960;5.582;2023-07-29T12:11:17;25.30;61.00
71237;DHT22;58984;51.960;5.582;2023-07-29T12:13:43;25.30;61.20
71237;DHT22;58984;51.960;5.582;2023-07-29T12:16:09;25.30;61.20
71237;DHT22;58984;51.960;5.582;2023-07-29T12:18:36;25.30;61.30
71237;DHT22;58984;51.960;5.582;2023-07-29T12:21:02;25.30;61.30
71237;DHT22;58984;51.960;5.582;2023-07-29T12:23:29;25.30;61.30
71237;DHT22;58984;51.960;5.582;2023-07-29T12:25:59;25.30;61.40
71237;DHT22;58984;51.960;5.582;2023-07-29T12:28:25;25.20;61.40
71237;DHT22;58984;51.960;5.582;2023-07-29T12:30:58;25.30;61.50
71237;DHT22;58984;51.960;5.582;2023-07-29T12:33:35;25.20;61.60
71237;DHT22;58984;51.960;5.582;2023-07-29T12:36:02;25.20;61.60
71237;DHT22;58984;51.960;5.582;2023-07-29T12:38:28;25.20;61.40
71237;DHT22;58984;51.960;5.582;2023-07-29T12:40:54;25.20;61.50
71237;DHT22;58984;51.960;5.582;2023-07-29T12:43:20;25.20;61.40
71237;DHT22;58984;51.960;5.582;2023-07-29T12:45:45;25.20;61.40
71237;DHT22;58984;51.960;5.582;2023-07-29T12:48:11;25.20;61.40
71237;DHT22;58984;51.960;5.582;2023-07-29T12:50:37;25.30;61.50
71237;DHT22;58984;51.960;5.582;2023-07-29T12:53:05;25.30;61.40
71237;DHT22;58984;51.960;5.582;2023-07-29T12:55:30;25.30;61.40
71237;DHT22;58984;51.960;5.582;2023-07-29T12:57:56;25.40;61.40
71237;DHT22;58984;51.960;5.582;2023-07-29T13:00:23;25.30;61.30
71237;DHT22;58984;51.960;5.582;2023-07-29T13:02:49;25.40;61.40
71237;DHT22;58984;51.960;5.582;2023-07-29T13:05:14;25.40;61.30
71237;DHT22;58984;51.960;5.582;2023-07-29T13:07:40;25.40;61.30
71237;DHT22;58984;51.960;5.582;2023-07-29T13:10:07;25.40;61.30
71237;DHT22;58984;51.960;5.582;2023-07-29T13:12:33;25.40;61.30
71237;DHT22;58984;51.960;5.582;2023-07-29T13:14:58;25.40;61.30
71237;DHT22;58984;51.960;5.582;2023-07-29T13:17:24;25.50;61.30
71237;DHT22;58984;51.960;5.582;2023-07-29T13:19:50;25.50;61.40
71237;DHT22;58984;51.960;5.582;2023-07-29T13:22:16;25.50;61.30
71237;DHT22;58984;51.960;5.582;2023-07-29T13:24:42;25.50;61.30
71237;DHT22;58984;51.960;5.582;2023-07-29T13:27:08;25.50;61.40
71237;DHT22;58984;51.960;5.582;2023-07-29T13:29:33;25.50;61.40
71237;DHT22;58984;51.960;5.582;2023-07-29T13:31:59;25.50;61.60
71237;DHT22;58984;51.960;5.582;2023-07-29T13:34:24;25.50;61.60
71237;DHT22;58984;51.960;5.582;2023-07-29T13:36:50;25.50;61.50
71237;DHT22;58984;51.960;5.582;2023-07-29T13:39:16;25.50;61.50
71237;DHT22;58984;51.960;5.582;2023-07-29T13:41:41;25.50;61.50
71237;DHT22;58984;51.960;5.582;2023-07-29T13:44:07;25.50;61.60
71237;DHT22;58984;51.960;5.582;2023-07-29T13:46:33;25.50;61.50
71237;DHT22;58984;51.960;5.582;2023-07-29T13:48:58;25.50;61.50
71237;DHT22;58984;51.960;5.582;2023-07-29T13:51:24;25.50;61.40
71237;DHT22;58984;51.960;5.582;2023-07-29T13:53:50;25.50;61.40
71237;DHT22;58984;51.960;5.582;2023-07-29T13:56:15;25.50;61.40
71237;DHT22;58984;51.960;5.582;2023-07-29T13:58:41;25.50;61.30
71237;DHT22;58984;51.960;5.582;2023-07-29T14:01:06;25.50;61.30
71237;DHT22;58984;51.960;5.582;2023-07-29T14:03:32;25.50;61.20
71237;DHT22;58984;51.960;5.582;2023-07-29T14:05:57;25.50;61.30
71237;DHT22;58984;51.960;5.582;2023-07-29T14:08:23;25.50;61.20
71237;DHT22;58984;51.960;5.582;2023-07-29T14:10:49;25.50;61.00
71237;DHT22;58984;51.960;5.582;2023-07-29T14:13:15;25.50;61.10
71237;DHT22;58984;51.960;5.582;2023-07-29T14:15:40;25.50;61.20
71237;DHT22;58984;51.960;5.582;2023-07-29T14:18:06;25.50;61.20
71237;DHT22;58984;51.960;5.582;2023-07-29T14:20:32;25.50;61.00
71237;DHT22;58984;51.960;5.582;2023-07-29T14:22:58;25.50;60.90
71237;DHT22;58984;51.960;5.582;2023-07-29T14:25:24;25.50;61.00
71237;DHT22;58984;51.960;5.582;2023-07-29T14:27:50;25.50;61.00
71237;DHT22;58984;51.960;5.582;2023-07-29T14:30:15;25.50;61.00
71237;DHT22;58984;51.960;5.582;2023-07-29T14:32:41;25.50;60.90
71237;DHT22;58984;51.960;5.582;2023-07-29T14:35:07;25.60;60.90
71237;DHT22;58984;51.960;5.582;2023-07-29T14:37:34;25.60;60.90
71237;DHT22;58984;51.960;5.582;2023-07-29T14:40:00;25.60;60.90
71237;DHT22;58984;51.960;5.582;2023-07-29T14:42:26;25.60;60.80
71237;DHT22;58984;51.960;5.582;2023-07-29T14:44:52;25.60;60.70
71237;DHT22;58984;51.960;5.582;2023-07-29T14:47:18;25.60;60.70
71237;DHT22;58984;51.960;5.582;2023-07-29T14:49:44;25.70;60.80
71237;DHT22;58984;51.960;5.582;2023-07-29T14:52:10;25.60;60.80
71237;DHT22;58984;51.960;5.582;2023-07-29T14:54:36;25.60;60.60
71237;DHT22;58984;51.960;5.582;2023-07-29T14:57:02;25.60;60.60
71237;DHT22;58984;51.960;5.582;2023-07-29T14:59:27;25.70;60.60
71237;DHT22;58984;51.960;5.582;2023-07-29T15:01:53;25.60;60.40
71237;DHT22;58984;51.960;5.582;2023-07-29T15:04:18;25.70;60.30
71237;DHT22;58984;51.960;5.582;2023-07-29T15:06:44;25.70;60.10
71237;DHT22;58984;51.960;5.582;2023-07-29T15:09:10;25.70;60.10
71237;DHT22;58984;51.960;5.582;2023-07-29T15:11:35;25.70;60.20
71237;DHT22;58984;51.960;5.582;2023-07-29T15:14:02;25.70;60.10
71237;DHT22;58984;51.960;5.582;2023-07-29T15:16:29;25.70;60.10
71237;DHT22;58984;51.960;5.582;2023-07-29T15:18:54;25.70;60.10
71237;DHT22;58984;51.960;5.582;2023-07-29T15:21:21;25.80;60.10
71237;DHT22;58984;51.960;5.582;2023-07-29T15:23:46;25.70;60.10
71237;DHT22;58984;51.960;5.582;2023-07-29T15:26:12;25.70;60.00
71237;DHT22;58984;51.960;5.582;2023-07-29T15:28:38;25.80;60.00
71237;DHT22;58984;51.960;5.582;2023-07-29T15:31:03;25.70;60.00
71237;DHT22;58984;51.960;5.582;2023-07-29T15:33:29;25.70;60.00
71237;DHT22;58984;51.960;5.582;2023-07-29T15:35:55;25.80;60.00
71237;DHT22;58984;51.960;5.582;2023-07-29T15:38:20;25.80;60.00
71237;DHT22;58984;51.960;5.582;2023-07-29T15:40:46;25.80;60.00
71237;DHT22;58984;51.960;5.582;2023-07-29T15:43:14;25.80;60.00
71237;DHT22;58984;51.960;5.582;2023-07-29T15:45:40;25.80;59.90